Time;durP1;ratioP1;P1;durP2;ratioP2;P2;SDS_P1;SDS_P2;PMS_P1;PMS_P2;Temp;Humidity;BMP_temperature;BMP_pressure;BME280_temperature;BME280_humidity;BME280_pressure;Samples;Min_cycle;Max_cycle;Signal;HPM_P1;HPM_P2
2023/08/22 00:01:40;;;;;;;7.70;6.90;;;29.60;51.10;;;;;;5053446;28;20503;-72
2023/08/22 00:04:06;;;;;;;8.30;7.20;;;29.40;51.10;;;;;;5053847;28;20064;-68
2023/08/22 00:06:32;;;;;;;7.72;7.00;;;29.60;51.10;;;;;;5067997;28;20037;-70
2023/08/22 00:08:58;;;;;;;7.93;7.13;;;29.60;51.20;;;;;;5053831;28;20047;-69
2023/08/22 00:11:24;;;;;;;9.18;6.57;;;29.60;51.20;;;;;;5053799;28;20094;-69
2023/08/22 00:13:50;;;;;;;7.40;6.68;;;29.50;51.30;;;;;;5053420;28;20102;-69
2023/08/22 00:16:17;;;;;;;8.00;6.38;;;29.50;51.30;;;;;;5053745;28;20124;-69
2023/08/22 00:18:43;;;;;;;6.93;6.22;;;29.60;51.40;;;;;;5053674;28;20029;-68
2023/08/22 00:21:09;;;;;;;7.10;6.40;;;29.50;51.40;;;;;;5053600;28;20037;-69
2023/08/22 00:23:35;;;;;;;6.20;5.60;;;29.70;51.40;;;;;;5053054;28;20103;-69
2023/08/22 00:26:01;;;;;;;6.95;6.25;;;29.60;51.50;;;;;;5053141;28;20468;-70
2023/08/22 00:28:27;;;;;;;7.25;6.55;;;29.50;51.50;;;;;;5069146;28;20538;-68
2023/08/22 00:30:53;;;;;;;7.28;6.38;;;29.50;51.50;;;;;;5073408;28;20027;-68
2023/08/22 00:33:21;;;;;;;7.22;6.55;;;29.50;51.50;;;;;;5071887;28;20122;-69
2023/08/22 00:35:48;;;;;;;6.68;6.00;;;29.50;51.60;;;;;;5072317;28;20025;-69
2023/08/22 00:38:15;;;;;;;6.40;5.80;;;29.60;51.60;;;;;;5055526;28;20430;-69
2023/08/22 00:40:41;;;;;;;6.65;5.95;;;29.50;51.60;;;;;;5072149;28;20071;-70
2023/08/22 00:43:07;;;;;;;9.23;7.22;;;29.50;51.60;;;;;;5073273;28;20571;-69
2023/08/22 00:45:33;;;;;;;6.97;6.28;;;29.50;51.60;;;;;;5087810;28;20068;-68
2023/08/22 00:47:59;;;;;;;7.82;6.53;;;29.50;51.60;;;;;;5073494;28;20617;-69
2023/08/22 00:50:27;;;;;;;7.97;6.80;;;29.50;51.60;;;;;;5073395;28;20123;-69
2023/08/22 00:52:53;;;;;;;7.82;6.28;;;29.50;51.60;;;;;;5072879;28;20173;-69
2023/08/22 00:55:19;;;;;;;8.05;6.78;;;29.50;51.60;;;;;;5073021;28;20178;-69
2023/08/22 00:57:46;;;;;;;6.47;5.75;;;29.50;51.60;;;;;;5072947;28;20097;-69
2023/08/22 01:00:12;;;;;;;7.07;5.95;;;29.40;51.60;;;;;;5072915;28;20767;-69
2023/08/22 01:02:39;;;;;;;9.35;6.60;;;29.40;51.60;;;;;;5070331;28;20049;-70
2023/08/22 01:05:06;;;;;;;6.88;6.28;;;29.40;51.70;;;;;;5071903;28;20121;-69
2023/08/22 01:07:40;;;;;;;11.75;6.40;;;29.40;51.80;;;;;;5072687;28;20025;-69
2023/08/22 01:10:18;;;;;;;7.55;6.22;;;29.40;51.80;;;;;;5072825;28;20068;-69
2023/08/22 01:12:53;;;;;;;7.45;5.93;;;29.40;51.80;;;;;;5087042;28;20049;-69
2023/08/22 01:15:28;;;;;;;7.50;6.45;;;29.40;51.90;;;;;;5072450;28;20075;-69
2023/08/22 01:17:56;;;;;;;6.45;5.85;;;29.40;51.90;;;;;;5072802;28;20028;-70
2023/08/22 01:20:27;;;;;;;6.57;5.88;;;29.40;51.90;;;;;;5072463;28;20033;-68
2023/08/22 01:22:54;;;;;;;7.30;6.60;;;29.50;51.90;;;;;;5072162;28;20119;-69
2023/08/22 01:25:22;;;;;;;6.57;5.95;;;29.50;51.90;;;;;;5072513;28;20024;-69
2023/08/22 01:28:12;;;;;;;5.88;5.28;;;29.60;51.90;;;;;;5072254;28;20122;-69
2023/08/22 01:30:53;;;;;;;6.88;5.78;;;29.50;52.00;;;;;;5071144;28;20083;-69
2023/08/22 01:33:32;;;;;;;6.38;5.78;;;29.40;52.00;;;;;;5072169;28;20024;-69
2023/08/22 01:35:58;;;;;;;7.30;6.05;;;29.50;52.00;;;;;;5070865;28;20037;-69
2023/08/22 01:38:29;;;;;;;6.97;6.10;;;29.50;52.00;;;;;;5071370;28;20040;-69
2023/08/22 01:40:57;;;;;;;6.50;5.78;;;29.40;52.00;;;;;;5063436;28;20025;-69
2023/08/22 01:43:25;;;;;;;7.68;6.32;;;29.50;52.10;;;;;;5050750;28;20457;-69
2023/08/22 01:45:51;;;;;;;12.43;8.43;;;29.40;52.00;;;;;;5051964;28;20352;-69
2023/08/22 01:48:17;;;;;;;11.13;9.40;;;29.60;52.00;;;;;;5051875;28;20052;-69
2023/08/22 01:50:43;;;;;;;12.82;9.82;;;29.60;52.00;;;;;;5051906;28;20040;-70
2023/08/22 01:53:09;;;;;;;9.80;7.65;;;29.40;52.00;;;;;;5051827;28;20036;-69
2023/08/22 01:55:35;;;;;;;15.70;12.32;;;29.40;52.00;;;;;;5050549;28;20124;-69
2023/08/22 01:58:03;;;;;;;10.63;7.45;;;29.40;52.00;;;;;;5050520;28;20040;-69
2023/08/22 02:00:29;;;;;;;6.53;5.50;;;29.50;52.00;;;;;;5050686;28;20041;-68
2023/08/22 02:02:55;;;;;;;6.90;6.20;;;29.40;52.00;;;;;;5051455;28;20044;-69
2023/08/22 02:05:22;;;;;;;7.07;5.43;;;29.40;52.00;;;;;;5051510;28;20044;-69
2023/08/22 02:07:48;;;;;;;6.57;5.88;;;29.40;52.00;;;;;;5048885;28;20041;-70
2023/08/22 02:10:14;;;;;;;6.55;5.95;;;29.40;52.10;;;;;;5049215;28;20045;-69
2023/08/22 02:12:40;;;;;;;6.47;5.28;;;29.50;52.10;;;;;;5032279;28;20110;-68
2023/08/22 02:15:07;;;;;;;6.47;5.88;;;29.50;52.20;;;;;;5015955;28;20059;-70
2023/08/22 02:17:34;;;;;;;6.50;5.82;;;29.50;52.10;;;;;;5048871;28;20077;-70
2023/08/22 02:20:00;;;;;;;6.38;5.32;;;29.50;52.20;;;;;;5047663;28;20174;-69
2023/08/22 02:22:26;;;;;;;7.13;6.13;;;29.50;52.20;;;;;;5068660;28;20045;-70
2023/08/22 02:24:52;;;;;;;7.30;5.75;;;29.40;52.20;;;;;;5068923;28;20045;-69
2023/08/22 02:27:18;;;;;;;6.07;5.47;;;29.40;52.20;;;;;;5055059;28;20086;-69
2023/08/22 02:29:44;;;;;;;6.53;5.50;;;29.40;52.20;;;;;;5032236;28;20501;-69
2023/08/22 02:32:10;;;;;;;5.95;5.38;;;29.30;52.20;;;;;;5048838;28;20178;-69
2023/08/22 02:34:37;;;;;;;6.63;6.03;;;29.40;52.30;;;;;;5048621;28;20140;-70
2023/08/22 02:37:04;;;;;;;6.70;5.93;;;29.20;52.30;;;;;;5048731;28;20179;-68
2023/08/22 02:39:30;;;;;;;8.70;5.82;;;29.40;52.30;;;;;;5050680;28;20048;-69
2023/08/22 02:41:56;;;;;;;7.15;5.72;;;29.20;52.30;;;;;;5051146;28;20044;-69
2023/08/22 02:44:22;;;;;;;6.13;5.53;;;29.30;52.30;;;;;;5049760;28;20396;-68
2023/08/22 02:46:48;;;;;;;7.28;6.35;;;29.20;52.30;;;;;;5049547;28;20084;-70
2023/08/22 02:49:15;;;;;;;6.40;5.80;;;29.20;52.30;;;;;;5051105;28;20025;-69
2023/08/22 02:51:41;;;;;;;6.30;5.55;;;29.30;52.50;;;;;;5049797;28;20040;-69
2023/08/22 02:54:07;;;;;;;7.88;6.55;;;29.30;52.50;;;;;;5049604;28;20033;-69
2023/08/22 02:56:33;;;;;;;6.32;5.55;;;29.40;52.50;;;;;;5048592;28;20049;-69
2023/08/22 02:58:59;;;;;;;7.53;5.65;;;29.20;52.60;;;;;;5050807;28;20123;-69
2023/08/22 03:01:25;;;;;;;6.60;5.88;;;29.40;52.60;;;;;;5050680;28;20488;-69
2023/08/22 03:03:54;;;;;;;6.20;5.60;;;29.30;52.60;;;;;;5050690;28;20087;-69
2023/08/22 03:06:22;;;;;;;6.40;5.75;;;29.10;52.60;;;;;;5048315;28;20163;-69
2023/08/22 03:08:49;;;;;;;6.80;5.65;;;29.30;52.70;;;;;;5048278;28;20041;-69
2023/08/22 03:11:15;;;;;;;6.22;5.63;;;29.30;52.70;;;;;;5031767;28;20064;-68
2023/08/22 03:13:41;;;;;;;7.78;5.85;;;29.40;52.70;;;;;;5014937;28;20048;-70
2023/08/22 03:16:07;;;;;;;8.55;5.55;;;29.30;52.70;;;;;;5048341;28;20052;-69
2023/08/22 03:18:36;;;;;;;7.55;5.68;;;29.40;52.70;;;;;;5031717;28;20115;-69
2023/08/22 03:21:02;;;;;;;5.72;5.20;;;29.40;52.70;;;;;;5048455;28;20049;-69
2023/08/22 03:23:28;;;;;;;5.90;5.30;;;29.50;52.70;;;;;;5031392;28;20087;-69
2023/08/22 03:26:10;;;;;;;7.55;5.88;;;29.40;52.70;;;;;;5031380;28;20041;-68
2023/08/22 03:28:37;;;;;;;6.85;5.75;;;29.40;52.70;;;;;;5027992;28;20583;-70
2023/08/22 03:31:03;;;;;;;6.05;5.43;;;29.60;52.70;;;;;;5028378;28;20491;-69
2023/08/22 03:33:33;;;;;;;6.82;5.90;;;29.50;52.80;;;;;;5011654;28;20504;-69
2023/08/22 03:36:00;;;;;;;6.47;5.60;;;29.40;52.80;;;;;;5011925;28;20472;-69
2023/08/22 03:38:26;;;;;;;6.50;5.82;;;29.60;52.70;;;;;;5030828;28;20049;-69
2023/08/22 03:40:55;;;;;;;6.45;5.72;;;29.40;52.80;;;;;;5048012;28;20029;-69
2023/08/22 03:43:22;;;;;;;6.00;5.32;;;29.40;52.80;;;;;;5031540;28;20134;-68
2023/08/22 03:45:49;;;;;;;7.28;6.13;;;29.40;52.80;;;;;;5047825;28;20412;-69
2023/08/22 03:48:15;;;;;;;6.15;5.55;;;29.40;52.80;;;;;;5048096;28;20053;-69
2023/08/22 03:50:42;;;;;;;6.28;5.68;;;29.60;52.80;;;;;;5047721;28;20049;-70
2023/08/22 03:53:10;;;;;;;6.38;5.68;;;29.60;52.80;;;;;;5031187;28;20043;-71
2023/08/22 03:55:36;;;;;;;8.90;7.47;;;29.60;52.70;;;;;;5048051;28;20128;-71
2023/08/22 03:58:02;;;;;;;10.50;8.23;;;29.50;52.50;;;;;;5031475;28;20033;-70
2023/08/22 04:00:29;;;;;;;11.07;9.60;;;29.70;52.50;;;;;;5050078;28;20539;-71
2023/08/22 04:02:57;;;;;;;11.80;10.23;;;29.60;52.40;;;;;;5034407;28;20044;-71
2023/08/22 04:05:24;;;;;;;15.70;11.25;;;29.50;52.40;;;;;;5036035;28;20045;-71
2023/08/22 04:07:51;;;;;;;14.38;10.85;;;29.60;52.40;;;;;;5053658;28;20445;-71
2023/08/22 04:10:18;;;;;;;13.85;10.95;;;29.60;52.30;;;;;;5053832;28;20036;-71
2023/08/22 04:12:44;;;;;;;13.93;11.40;;;29.50;52.30;;;;;;5052936;28;20120;-71
2023/08/22 04:15:12;;;;;;;15.38;12.38;;;29.40;52.30;;;;;;5069822;28;20044;-70
2023/08/22 04:17:41;;;;;;;16.55;12.48;;;29.60;52.40;;;;;;5072247;28;20086;-69
2023/08/22 04:20:12;;;;;;;14.20;11.52;;;29.60;52.60;;;;;;5054154;28;20182;-70
2023/08/22 04:22:41;;;;;;;21.35;12.10;;;29.60;53.30;;;;;;5054117;28;20070;-70
2023/08/22 04:25:09;;;;;;;16.27;13.02;;;29.70;54.00;;;;;;5037734;28;20527;-69
2023/08/22 04:27:36;;;;;;;22.88;14.07;;;29.70;55.00;;;;;;5014293;28;20053;-70
2023/08/22 04:30:03;;;;;;;16.33;11.95;;;29.70;54.40;;;;;;5014619;28;20053;-69
2023/08/22 04:32:30;;;;;;;16.23;11.90;;;29.90;53.30;;;;;;4997887;28;20057;-69
2023/08/22 04:34:57;;;;;;;17.05;10.98;;;29.70;53.10;;;;;;4997846;28;20485;-69
2023/08/22 04:37:23;;;;;;;16.17;10.73;;;29.80;52.90;;;;;;4997515;28;20049;-69
2023/08/22 04:39:49;;;;;;;14.85;11.98;;;29.80;53.00;;;;;;4994678;28;20478;-69
2023/08/22 04:42:38;;;;;;;14.13;10.95;;;29.80;53.10;;;;;;4972100;28;20038;-68
2023/08/22 04:45:10;;;;;;;14.10;11.63;;;29.90;53.20;;;;;;4971934;28;20073;-69
2023/08/22 04:47:36;;;;;;;15.75;10.80;;;29.90;53.30;;;;;;4971655;28;20051;-68
2023/08/22 04:50:02;;;;;;;15.30;12.18;;;29.90;53.40;;;;;;4972739;28;20495;-71
2023/08/22 04:52:29;;;;;;;14.63;10.68;;;29.90;53.40;;;;;;4991373;28;20210;-69
2023/08/22 04:54:55;;;;;;;17.17;11.27;;;29.90;53.70;;;;;;4991107;28;20098;-69
2023/08/22 04:57:23;;;;;;;13.77;11.80;;;29.80;54.00;;;;;;4975316;28;20052;-69
2023/08/22 04:59:52;;;;;;;13.20;10.77;;;29.90;54.00;;;;;;4994447;28;20072;-69
2023/08/22 05:02:19;;;;;;;14.90;12.25;;;29.90;54.00;;;;;;4978305;28;20595;-70
2023/08/22 05:04:46;;;;;;;17.20;12.60;;;29.90;53.30;;;;;;4977949;28;20038;-71
2023/08/22 05:07:12;;;;;;;22.30;13.00;;;29.90;52.90;;;;;;5010569;28;20050;-71
2023/08/22 05:09:38;;;;;;;17.98;13.52;;;29.90;52.40;;;;;;4994192;28;20049;-69
2023/08/22 05:12:05;;;;;;;18.67;13.52;;;29.90;52.20;;;;;;5010596;28;20053;-70
2023/08/22 05:14:33;;;;;;;21.38;13.32;;;30.00;54.90;;;;;;5010390;28;20105;-69
2023/08/22 05:16:59;;;;;;;18.85;12.65;;;30.00;53.80;;;;;;4994050;28;20457;-70
2023/08/22 05:19:25;;;;;;;21.10;13.02;;;30.00;53.60;;;;;;5009895;28;20053;-69
2023/08/22 05:21:51;;;;;;;16.48;13.52;;;29.80;52.90;;;;;;5050168;28;20552;-68
2023/08/22 05:24:17;;;;;;;20.00;13.77;;;30.00;53.60;;;;;;5033304;28;20409;-69
2023/08/22 05:26:43;;;;;;;18.13;13.70;;;30.00;53.80;;;;;;5036974;28;20711;-69
2023/08/22 05:29:10;;;;;;;16.88;13.25;;;30.00;54.70;;;;;;5053232;28;20048;-70
2023/08/22 05:31:36;;;;;;;19.85;13.23;;;29.90;54.20;;;;;;5053063;28;20036;-70
2023/08/22 05:34:03;;;;;;;19.20;13.32;;;30.00;54.60;;;;;;5053067;28;20048;-69
2023/08/22 05:36:29;;;;;;;19.90;14.07;;;29.90;54.90;;;;;;5053115;28;20033;-69
2023/08/22 05:38:55;;;;;;;19.27;13.00;;;29.90;54.40;;;;;;5055583;28;20071;-70
2023/08/22 05:41:22;;;;;;;17.52;13.98;;;29.90;54.10;;;;;;5051096;28;20068;-68
2023/08/22 05:43:48;;;;;;;16.65;12.95;;;30.00;54.90;;;;;;5050717;28;20120;-70
2023/08/22 05:46:14;;;;;;;16.05;12.10;;;30.00;54.80;;;;;;5050835;28;20432;-69
2023/08/22 05:48:40;;;;;;;23.05;13.32;;;30.20;55.80;;;;;;5052204;28;20032;-69
2023/08/22 05:51:06;;;;;;;17.00;12.45;;;30.10;55.00;;;;;;5050735;28;20761;-68
2023/08/22 05:53:32;;;;;;;16.02;12.80;;;30.10;55.00;;;;;;5050523;28;20507;-69
2023/08/22 05:55:58;;;;;;;17.73;12.57;;;29.90;54.50;;;;;;5050602;28;20385;-71
2023/08/22 05:58:24;;;;;;;15.82;11.57;;;30.20;55.30;;;;;;5050471;28;20033;-71
2023/08/22 06:01:11;;;;;;;19.42;12.50;;;30.00;55.00;;;;;;5049319;28;20041;-69
2023/08/22 06:03:40;;;;;;;17.10;12.52;;;30.00;54.80;;;;;;4999570;28;20076;-70
2023/08/22 06:06:07;;;;;;;18.80;12.18;;;30.00;55.00;;;;;;5032500;28;20045;-70
2023/08/22 06:08:33;;;;;;;17.55;12.85;;;30.10;54.70;;;;;;5032448;28;21002;-68
2023/08/22 06:10:59;;;;;;;19.63;12.45;;;30.00;54.80;;;;;;5032453;28;20472;-72
2023/08/22 06:13:26;;;;;;;20.60;14.45;;;30.00;55.50;;;;;;5032356;28;20060;-72
2023/08/22 06:15:53;;;;;;;20.50;12.80;;;30.00;56.40;;;;;;5032437;28;20405;-72
2023/08/22 06:18:21;;;;;;;19.45;13.20;;;29.90;56.20;;;;;;5033692;28;20510;-71
2023/08/22 06:20:47;;;;;;;17.05;11.57;;;29.90;54.60;;;;;;5050140;28;20040;-73
2023/08/22 06:23:13;;;;;;;17.67;12.10;;;29.90;58.00;;;;;;5049175;28;20044;-72
2023/08/22 06:25:39;;;;;;;20.90;12.30;;;30.60;57.80;;;;;;5031473;28;20048;-68
2023/08/22 06:28:06;;;;;;;15.35;11.73;;;30.90;56.70;;;;;;5031885;28;20651;-70
2023/08/22 06:30:33;;;;;;;16.55;12.20;;;31.20;57.20;;;;;;5032213;28;20037;-70
2023/08/22 06:32:59;;;;;;;17.42;13.80;;;31.30;54.30;;;;;;5012164;28;20119;-70
2023/08/22 06:35:28;;;;;;;18.15;12.73;;;31.00;54.10;;;;;;5027700;28;20485;-69
2023/08/22 06:37:54;;;;;;;16.05;12.27;;;30.70;54.60;;;;;;5014929;28;20044;-70
2023/08/22 06:40:22;;;;;;;16.15;12.20;;;30.60;55.10;;;;;;5055097;28;20048;-70
2023/08/22 06:42:49;;;;;;;35.05;15.57;;;30.50;57.00;;;;;;5051534;28;20079;-70
2023/08/22 06:45:24;;;;;;;21.98;14.57;;;30.60;58.10;;;;;;5055198;28;20055;-70
2023/08/22 06:47:50;;;;;;;18.20;12.13;;;30.70;57.60;;;;;;5048190;28;20037;-70
2023/08/22 06:50:16;;;;;;;19.88;12.50;;;31.00;57.70;;;;;;5032048;28;20040;-70
2023/08/22 06:52:42;;;;;;;16.75;12.88;;;31.20;59.80;;;;;;5051211;28;20542;-69
2023/08/22 06:55:09;;;;;;;27.67;16.35;;;31.60;57.20;;;;;;5068307;28;20159;-69
2023/08/22 06:57:35;;;;;;;19.13;12.70;;;31.70;64.50;;;;;;5068237;28;20137;-69
2023/08/22 07:00:13;;;;;;;24.60;14.13;;;31.90;58.60;;;;;;5051485;28;20127;-69
2023/08/22 07:02:40;;;;;;;18.05;12.80;;;32.10;58.70;;;;;;5051299;28;20036;-70
2023/08/22 07:05:08;;;;;;;19.40;13.15;;;32.10;58.30;;;;;;5067871;28;20050;-70
2023/08/22 07:07:35;;;;;;;17.90;11.48;;;32.20;58.10;;;;;;5068033;28;20044;-70
2023/08/22 07:10:01;;;;;;;18.75;12.55;;;32.40;59.00;;;;;;5063326;28;20538;-69
2023/08/22 07:12:27;;;;;;;17.25;12.27;;;32.40;55.20;;;;;;5050624;28;20037;-69
2023/08/22 07:14:53;;;;;;;18.05;12.05;;;32.50;54.50;;;;;;5050522;28;20432;-69
2023/08/22 07:17:19;;;;;;;15.70;11.75;;;32.50;56.50;;;;;;5050953;28;20369;-72
2023/08/22 07:19:45;;;;;;;18.60;13.07;;;32.60;56.30;;;;;;5050700;28;20071;-72
2023/08/22 07:22:11;;;;;;;18.65;12.07;;;32.50;57.20;;;;;;5051138;28;20061;-72
2023/08/22 07:24:37;;;;;;;16.58;10.75;;;32.60;52.30;;;;;;5050506;28;20045;-74
2023/08/22 07:27:03;;;;;;;18.52;11.40;;;32.60;52.20;;;;;;5050929;28;20028;-75
2023/08/22 07:29:29;;;;;;;20.00;13.02;;;32.50;52.30;;;;;;5051009;28;20033;-75
2023/08/22 07:31:59;;;;;;;20.80;13.27;;;32.40;54.00;;;;;;5051465;28;20047;-77
2023/08/22 07:34:25;;;;;;;18.25;12.43;;;32.50;58.40;;;;;;5051492;28;20048;-75
2023/08/22 07:36:52;;;;;;;13.23;10.05;;;32.30;53.70;;;;;;5068670;28;20052;-75
2023/08/22 07:39:18;;;;;;;17.45;12.65;;;32.40;51.30;;;;;;5072218;28;20079;-73
2023/08/22 07:41:44;;;;;;;16.35;13.38;;;32.30;52.80;;;;;;5071966;28;20110;-73
2023/08/22 07:44:10;;;;;;;15.95;12.40;;;32.20;51.70;;;;;;5060475;28;20040;-73
2023/08/22 07:46:36;;;;;;;15.88;10.65;;;32.10;52.40;;;;;;5091919;28;20051;-73
2023/08/22 07:49:02;;;;;;;18.23;13.23;;;32.00;53.00;;;;;;5092146;28;20097;-72
2023/08/22 07:51:29;;;;;;;17.85;12.52;;;32.20;55.60;;;;;;5075045;28;20042;-72
2023/08/22 07:53:55;;;;;;;19.98;13.90;;;32.00;53.90;;;;;;5092093;28;20442;-71
2023/08/22 07:56:21;;;;;;;19.63;14.15;;;32.00;55.60;;;;;;5091983;28;20408;-72
2023/08/22 07:58:48;;;;;;;17.10;13.93;;;32.00;55.10;;;;;;5091986;28;20119;-70
2023/08/22 08:01:14;;;;;;;18.13;13.95;;;32.00;55.10;;;;;;5090387;28;20042;-71
2023/08/22 08:03:40;;;;;;;22.90;16.23;;;32.00;56.10;;;;;;5057205;28;20550;-71
2023/08/22 08:06:06;;;;;;;11.45;9.73;;;32.00;53.80;;;;;;5054014;28;20365;-71
2023/08/22 08:08:32;;;;;;;18.00;12.60;;;31.90;52.60;;;;;;5053874;28;20099;-70
2023/08/22 08:10:58;;;;;;;18.02;13.60;;;32.00;54.00;;;;;;5055978;28;20115;-71
2023/08/22 08:13:24;;;;;;;20.40;12.70;;;31.90;52.60;;;;;;5053801;28;20033;-72
2023/08/22 08:15:50;;;;;;;16.23;11.98;;;31.90;51.80;;;;;;5054025;28;20480;-71
2023/08/22 08:18:16;;;;;;;15.70;11.63;;;31.90;50.40;;;;;;5054306;28;20166;-71
2023/08/22 08:20:43;;;;;;;22.10;12.52;;;32.00;50.10;;;;;;5054062;28;20029;-72
2023/08/22 08:23:10;;;;;;;16.20;12.38;;;31.80;49.00;;;;;;5053806;28;20033;-72
2023/08/22 08:25:37;;;;;;;18.00;11.95;;;31.90;52.00;;;;;;5050794;28;20072;-72
2023/08/22 08:28:05;;;;;;;13.57;11.25;;;31.80;49.20;;;;;;5051417;28;20057;-69
2023/08/22 08:30:32;;;;;;;13.90;11.02;;;31.70;49.50;;;;;;5050786;28;20131;-71
2023/08/22 08:32:57;;;;;;;13.52;10.75;;;31.70;48.90;;;;;;5050957;28;20155;-69
2023/08/22 08:35:23;;;;;;;15.65;9.45;;;31.80;48.80;;;;;;5050717;28;20135;-69
2023/08/22 08:37:51;;;;;;;16.27;9.30;;;31.70;51.40;;;;;;5050708;28;20045;-69
2023/08/22 08:40:18;;;;;;;12.82;8.50;;;31.70;51.10;;;;;;5049410;28;20120;-68
2023/08/22 08:42:45;;;;;;;12.65;9.82;;;31.70;48.70;;;;;;5050729;28;20249;-71
2023/08/22 08:45:15;;;;;;;12.48;10.05;;;31.60;47.40;;;;;;5064017;28;20039;-70
2023/08/22 08:47:43;;;;;;;10.30;8.90;;;31.50;47.50;;;;;;5070311;28;20472;-69
2023/08/22 08:50:09;;;;;;;11.45;10.25;;;31.40;47.60;;;;;;5070718;28;20047;-70
2023/08/22 08:52:36;;;;;;;13.90;10.75;;;31.50;46.60;;;;;;5070511;28;20036;-69
2023/08/22 08:55:04;;;;;;;24.67;15.13;;;31.60;46.50;;;;;;5070431;28;20067;-69
2023/08/22 08:57:32;;;;;;;12.43;9.05;;;31.60;44.20;;;;;;5070319;28;20051;-71
2023/08/22 09:00:01;;;;;;;12.30;8.82;;;31.50;44.90;;;;;;5070617;28;20044;-72
2023/08/22 09:02:28;;;;;;;11.65;8.52;;;31.40;45.30;;;;;;5070989;28;20566;-71
2023/08/22 09:04:54;;;;;;;13.32;9.90;;;31.60;45.10;;;;;;5070409;28;20048;-70
2023/08/22 09:07:20;;;;;;;11.82;8.98;;;31.40;45.00;;;;;;5072940;28;20033;-71
2023/08/22 09:09:47;;;;;;;13.05;8.52;;;31.50;44.80;;;;;;5072795;28;20036;-70
2023/08/22 09:12:15;;;;;;;12.10;8.77;;;31.30;44.80;;;;;;5072665;28;20028;-69
2023/08/22 09:14:46;;;;;;;8.75;7.55;;;31.40;44.70;;;;;;5072618;28;20033;-69
2023/08/22 09:17:18;;;;;;;11.63;8.55;;;31.30;44.50;;;;;;5072635;28;20086;-69
2023/08/22 09:19:45;;;;;;;12.20;7.70;;;31.30;44.30;;;;;;5072696;28;20037;-68
2023/08/22 09:22:14;;;;;;;11.70;8.45;;;31.20;44.30;;;;;;5072563;28;20040;-70
2023/08/22 09:24:51;;;;;;;12.13;7.75;;;31.10;44.40;;;;;;5072191;28;20047;-69
2023/08/22 09:27:22;;;;;;;10.95;7.63;;;31.30;44.50;;;;;;5072489;28;20040;-68
2023/08/22 09:29:48;;;;;;;9.13;7.35;;;31.20;45.30;;;;;;5072649;28;20044;-69
2023/08/22 09:32:14;;;;;;;10.35;7.78;;;31.10;45.60;;;;;;5072351;28;20086;-68
2023/08/22 09:34:52;;;;;;;10.18;8.07;;;31.30;46.00;;;;;;5072176;28;20072;-68
2023/08/22 09:37:37;;;;;;;9.25;7.05;;;31.10;46.20;;;;;;5072198;28;20040;-68
2023/08/22 09:40:09;;;;;;;12.70;7.63;;;31.10;46.40;;;;;;5072286;28;20090;-68
2023/08/22 09:42:39;;;;;;;8.52;7.10;;;31.10;48.50;;;;;;5071864;28;20020;-69
2023/08/22 09:45:07;;;;;;;9.73;8.02;;;31.00;47.20;;;;;;5059213;28;20061;-69
2023/08/22 09:47:41;;;;;;;10.63;7.13;;;31.10;47.10;;;;;;5052351;28;20063;-69
2023/08/22 09:50:09;;;;;;;8.65;7.47;;;31.10;47.20;;;;;;5052169;28;20040;-69
2023/08/22 09:52:39;;;;;;;8.88;7.50;;;31.20;47.40;;;;;;5051936;28;20438;-69
2023/08/22 09:55:10;;;;;;;11.02;8.15;;;31.10;47.30;;;;;;5052009;28;20072;-69
2023/08/22 09:57:37;;;;;;;10.85;7.40;;;31.00;47.50;;;;;;5051993;28;20041;-69
2023/08/22 10:00:05;;;;;;;8.23;7.10;;;31.00;47.70;;;;;;5051027;28;20056;-68
2023/08/22 10:02:40;;;;;;;9.13;7.40;;;31.00;47.70;;;;;;5057674;28;20044;-68
2023/08/22 10:05:08;;;;;;;9.30;7.13;;;31.00;48.20;;;;;;5060647;28;20048;-69
2023/08/22 10:07:35;;;;;;;9.27;7.65;;;31.00;48.20;;;;;;5051625;28;20080;-71
2023/08/22 10:10:03;;;;;;;10.07;7.55;;;31.00;48.30;;;;;;5051756;28;20362;-70
2023/08/22 10:12:30;;;;;;;9.80;7.47;;;30.80;48.00;;;;;;5051438;28;20128;-70
2023/08/22 10:14:57;;;;;;;6.95;6.25;;;30.90;48.20;;;;;;5050073;28;20143;-69
2023/08/22 10:17:27;;;;;;;9.70;6.43;;;31.00;48.80;;;;;;5050353;28;20125;-69
2023/08/22 10:20:01;;;;;;;9.98;7.68;;;30.80;48.40;;;;;;5051552;28;20135;-69
2023/08/22 10:22:34;;;;;;;9.75;7.05;;;30.90;48.60;;;;;;5051686;28;20068;-69
2023/08/22 10:25:04;;;;;;;9.20;7.63;;;30.90;48.70;;;;;;5069107;28;20040;-69
2023/08/22 10:27:31;;;;;;;7.35;6.40;;;30.90;48.60;;;;;;5068820;28;20051;-69
2023/08/22 10:30:17;;;;;;;10.80;8.18;;;30.90;48.70;;;;;;5068914;28;20102;-69
2023/08/22 10:33:03;;;;;;;14.95;9.73;;;31.00;51.60;;;;;;5068876;28;20051;-68
2023/08/22 10:35:29;;;;;;;12.15;8.32;;;31.20;55.10;;;;;;5068470;28;20048;-68
2023/08/22 10:37:55;;;;;;;11.27;7.80;;;31.20;52.80;;;;;;5068862;28;20082;-69
2023/08/22 10:40:32;;;;;;;9.90;7.05;;;31.10;51.90;;;;;;5068798;28;20047;-68
2023/08/22 10:43:10;;;;;;;9.95;7.53;;;31.10;51.90;;;;;;5068638;28;20181;-68
2023/08/22 10:45:37;;;;;;;11.68;7.90;;;31.00;52.60;;;;;;5085868;28;20071;-69
2023/08/22 10:48:11;;;;;;;9.05;6.93;;;31.10;52.50;;;;;;5088592;28;20063;-70
2023/08/22 10:50:42;;;;;;;8.32;6.90;;;31.10;53.30;;;;;;5088635;28;20193;-70
2023/08/22 10:53:18;;;;;;;8.68;7.25;;;31.20;55.40;;;;;;5088805;28;20051;-71
2023/08/22 10:55:44;;;;;;;10.20;8.15;;;31.20;51.40;;;;;;5082014;28;20131;-71
2023/08/22 10:58:36;;;;;;;7.40;6.35;;;31.10;50.20;;;;;;5069871;28;20144;-71
2023/08/22 11:01:10;;;;;;;11.43;7.95;;;31.00;49.30;;;;;;5071438;28;20044;-71
2023/08/22 11:03:37;;;;;;;10.80;7.28;;;31.10;48.60;;;;;;5071073;28;20464;-70
2023/08/22 11:06:14;;;;;;;7.93;6.40;;;31.10;48.00;;;;;;5070435;28;20037;-71
2023/08/22 11:08:42;;;;;;;9.68;6.95;;;31.10;47.60;;;;;;5070446;28;20040;-70
2023/08/22 11:11:08;;;;;;;8.23;6.75;;;31.00;47.20;;;;;;5071893;28;20066;-71
2023/08/22 11:13:36;;;;;;;7.30;6.43;;;31.10;46.90;;;;;;5073584;28;20041;-70
2023/08/22 11:16:04;;;;;;;9.20;6.57;;;31.00;46.60;;;;;;5074927;28;20091;-70
2023/08/22 11:18:30;;;;;;;8.63;6.20;;;31.00;46.30;;;;;;5072448;28;20076;-70
2023/08/22 11:20:56;;;;;;;7.18;5.70;;;30.90;45.40;;;;;;5074984;28;20043;-70
2023/08/22 11:23:23;;;;;;;7.85;5.40;;;31.00;45.60;;;;;;5074863;28;20055;-70
2023/08/22 11:25:49;;;;;;;9.07;6.03;;;31.00;45.30;;;;;;5074708;28;20028;-70
2023/08/22 11:28:14;;;;;;;6.43;5.75;;;30.80;44.50;;;;;;5055854;28;20055;-70
2023/08/22 11:30:41;;;;;;;7.65;6.53;;;30.90;44.40;;;;;;5074728;28;20051;-70
2023/08/22 11:33:07;;;;;;;6.93;5.20;;;30.90;44.10;;;;;;5074464;28;20137;-70
2023/08/22 11:35:32;;;;;;;8.85;5.70;;;30.90;43.90;;;;;;5074558;28;20484;-69
2023/08/22 11:37:59;;;;;;;8.10;5.65;;;30.70;43.60;;;;;;5074341;28;20035;-71
2023/08/22 11:40:26;;;;;;;8.23;6.15;;;30.80;43.40;;;;;;5074271;28;20051;-70
2023/08/22 11:42:56;;;;;;;7.18;5.85;;;30.70;43.20;;;;;;5074523;28;20032;-72
2023/08/22 11:45:22;;;;;;;7.00;6.05;;;30.70;43.10;;;;;;5059319;28;20414;-73
2023/08/22 11:47:49;;;;;;;6.65;5.03;;;30.80;42.70;;;;;;5054054;28;20491;-71
2023/08/22 11:50:20;;;;;;;6.35;5.28;;;30.90;42.60;;;;;;5053371;28;20032;-71
2023/08/22 11:52:48;;;;;;;7.80;6.20;;;30.60;42.40;;;;;;5052945;28;20037;-71
2023/08/22 11:55:26;;;;;;;7.72;5.03;;;30.70;42.40;;;;;;5054450;28;20037;-70
2023/08/22 11:58:00;;;;;;;5.95;5.30;;;30.60;42.20;;;;;;5055588;28;20033;-70
2023/08/22 12:00:28;;;;;;;7.35;5.35;;;30.60;42.10;;;;;;5054042;28;20040;-71
2023/08/22 12:02:56;;;;;;;8.20;5.10;;;30.60;41.90;;;;;;5051488;28;20052;-71
2023/08/22 12:05:31;;;;;;;5.45;4.75;;;30.60;41.70;;;;;;5051759;28;20405;-72
2023/08/22 12:08:19;;;;;;;5.88;5.00;;;30.60;41.60;;;;;;5052467;28;20037;-72
2023/08/22 12:10:51;;;;;;;5.72;5.05;;;30.50;41.60;;;;;;5053735;28;20048;-71
2023/08/22 12:13:18;;;;;;;;;;;30.60;41.40;;;;;;5054289;28;20039;-71
2023/08/22 12:15:45;;;;;;;7.25;4.88;;;30.50;41.50;;;;;;5054011;28;19923;-71
2023/08/22 12:18:12;;;;;;;6.35;4.60;;;30.40;41.50;;;;;;5053905;28;20033;-70
2023/08/22 12:20:40;;;;;;;6.22;4.78;;;30.40;41.50;;;;;;5053994;28;20040;-69
2023/08/22 12:23:15;;;;;;;6.22;5.18;;;30.40;41.30;;;;;;5052839;28;20033;-70
2023/08/22 12:25:42;;;;;;;4.93;4.43;;;30.30;40.80;;;;;;5053497;28;20033;-73
2023/08/22 12:28:10;;;;;;;5.47;4.28;;;30.50;41.00;;;;;;5053360;28;20481;-72
2023/08/22 12:30:37;;;;;;;9.10;5.15;;;30.20;40.80;;;;;;5053802;28;20041;-71
2023/08/22 12:33:05;;;;;;;7.07;4.80;;;30.20;41.10;;;;;;5053492;28;20431;-70
2023/08/22 12:35:38;;;;;;;5.50;4.57;;;30.30;41.50;;;;;;5053619;28;20045;-72
2023/08/22 12:38:04;;;;;;;5.03;4.45;;;30.30;41.90;;;;;;5053263;28;20056;-70
2023/08/22 12:40:30;;;;;;;5.55;4.22;;;30.20;42.30;;;;;;5052237;28;20463;-70
2023/08/22 12:42:58;;;;;;;5.32;4.47;;;30.20;42.30;;;;;;5053249;28;20045;-70